sensor_id;sensor_type;location;lat;lon;timestamp;P1;durP1;ratioP1;P2;durP2;ratioP2
60006;SDS011;45863;50.336;3.536;2023-04-15T00:01:52;6.43;;;1.80;;
60006;SDS011;45863;50.336;3.536;2023-04-15T00:04:17;4.25;;;1.90;;
60006;SDS011;45863;50.336;3.536;2023-04-15T00:06:48;4.63;;;1.73;;
60006;SDS011;45863;50.336;3.536;2023-04-15T00:09:13;4.95;;;2.13;;
60006;SDS011;45863;50.336;3.536;2023-04-15T00:11:39;4.82;;;1.80;;
60006;SDS011;45863;50.336;3.536;2023-04-15T00:14:04;6.10;;;1.90;;
60006;SDS011;45863;50.336;3.536;2023-04-15T00:16:30;4.47;;;2.08;;
60006;SDS011;45863;50.336;3.536;2023-04-15T00:18:55;5.28;;;1.98;;
60006;SDS011;45863;50.336;3.536;2023-04-15T00:21:20;4.47;;;1.70;;
60006;SDS011;45863;50.336;3.536;2023-04-15T00:23:46;4.40;;;1.58;;
60006;SDS011;45863;50.336;3.536;2023-04-15T00:26:16;4.55;;;1.63;;
60006;SDS011;45863;50.336;3.536;2023-04-15T00:28:42;6.43;;;1.88;;
60006;SDS011;45863;50.336;3.536;2023-04-15T00:31:08;4.20;;;1.60;;
60006;SDS011;45863;50.336;3.536;2023-04-15T00:33:33;5.43;;;1.50;;
60006;SDS011;45863;50.336;3.536;2023-04-15T00:36:00;5.15;;;1.70;;
60006;SDS011;45863;50.336;3.536;2023-04-15T00:38:26;4.20;;;1.77;;
60006;SDS011;45863;50.336;3.536;2023-04-15T00:40:52;4.07;;;1.75;;
60006;SDS011;45863;50.336;3.536;2023-04-15T00:43:17;5.50;;;1.88;;
60006;SDS011;45863;50.336;3.536;2023-04-15T00:45:42;8.98;;;1.88;;
60006;SDS011;45863;50.336;3.536;2023-04-15T00:48:08;8.48;;;2.17;;
60006;SDS011;45863;50.336;3.536;2023-04-15T00:50:33;6.10;;;1.98;;
60006;SDS011;45863;50.336;3.536;2023-04-15T00:52:58;5.78;;;1.70;;
60006;SDS011;45863;50.336;3.536;2023-04-15T00:55:24;8.33;;;1.60;;
60006;SDS011;45863;50.336;3.536;2023-04-15T00:57:49;4.60;;;1.63;;
60006;SDS011;45863;50.336;3.536;2023-04-15T01:00:14;6.13;;;1.70;;
60006;SDS011;45863;50.336;3.536;2023-04-15T01:02:40;5.13;;;1.80;;
60006;SDS011;45863;50.336;3.536;2023-04-15T01:05:06;6.38;;;2.25;;
60006;SDS011;45863;50.336;3.536;2023-04-15T01:07:31;6.03;;;1.90;;
60006;SDS011;45863;50.336;3.536;2023-04-15T01:09:57;6.05;;;2.13;;
60006;SDS011;45863;50.336;3.536;2023-04-15T01:12:22;3.85;;;1.95;;
60006;SDS011;45863;50.336;3.536;2023-04-15T01:14:48;5.10;;;1.80;;
60006;SDS011;45863;50.336;3.536;2023-04-15T01:17:14;5.85;;;1.98;;
60006;SDS011;45863;50.336;3.536;2023-04-15T01:19:39;4.20;;;1.85;;
60006;SDS011;45863;50.336;3.536;2023-04-15T01:22:04;5.88;;;1.90;;
60006;SDS011;45863;50.336;3.536;2023-04-15T01:24:30;4.82;;;2.40;;
60006;SDS011;45863;50.336;3.536;2023-04-15T01:26:55;6.63;;;2.15;;
60006;SDS011;45863;50.336;3.536;2023-04-15T01:29:21;5.22;;;2.03;;
60006;SDS011;45863;50.336;3.536;2023-04-15T01:31:50;5.93;;;2.30;;
60006;SDS011;45863;50.336;3.536;2023-04-15T01:34:16;4.20;;;1.90;;
60006;SDS011;45863;50.336;3.536;2023-04-15T01:36:41;9.13;;;2.27;;
60006;SDS011;45863;50.336;3.536;2023-04-15T01:39:06;5.40;;;2.10;;
60006;SDS011;45863;50.336;3.536;2023-04-15T01:41:32;4.20;;;1.90;;
60006;SDS011;45863;50.336;3.536;2023-04-15T01:43:57;7.03;;;2.25;;
60006;SDS011;45863;50.336;3.536;2023-04-15T01:46:22;7.00;;;2.90;;
60006;SDS011;45863;50.336;3.536;2023-04-15T01:48:48;7.30;;;2.80;;
60006;SDS011;45863;50.336;3.536;2023-04-15T01:51:13;5.20;;;2.30;;
60006;SDS011;45863;50.336;3.536;2023-04-15T01:53:38;6.72;;;2.70;;
60006;SDS011;45863;50.336;3.536;2023-04-15T01:56:03;5.05;;;2.47;;
60006;SDS011;45863;50.336;3.536;2023-04-15T01:58:29;5.50;;;2.05;;
60006;SDS011;45863;50.336;3.536;2023-04-15T02:00:54;5.50;;;2.72;;
60006;SDS011;45863;50.336;3.536;2023-04-15T02:03:19;4.82;;;2.63;;
60006;SDS011;45863;50.336;3.536;2023-04-15T02:05:45;8.60;;;2.85;;
60006;SDS011;45863;50.336;3.536;2023-04-15T02:08:10;6.32;;;2.90;;
60006;SDS011;45863;50.336;3.536;2023-04-15T02:10:36;7.97;;;3.10;;
60006;SDS011;45863;50.336;3.536;2023-04-15T02:13:01;7.10;;;3.13;;
60006;SDS011;45863;50.336;3.536;2023-04-15T02:15:26;10.15;;;3.25;;
60006;SDS011;45863;50.336;3.536;2023-04-15T02:17:52;6.20;;;3.07;;
60006;SDS011;45863;50.336;3.536;2023-04-15T02:20:19;6.30;;;3.38;;
60006;SDS011;45863;50.336;3.536;2023-04-15T02:22:45;7.20;;;3.63;;
60006;SDS011;45863;50.336;3.536;2023-04-15T02:25:11;7.40;;;4.00;;
60006;SDS011;45863;50.336;3.536;2023-04-15T02:27:36;8.23;;;3.40;;
60006;SDS011;45863;50.336;3.536;2023-04-15T02:30:01;9.02;;;3.83;;
60006;SDS011;45863;50.336;3.536;2023-04-15T02:32:27;6.43;;;3.55;;
60006;SDS011;45863;50.336;3.536;2023-04-15T02:34:53;8.23;;;3.80;;
60006;SDS011;45863;50.336;3.536;2023-04-15T02:37:18;7.80;;;3.72;;
60006;SDS011;45863;50.336;3.536;2023-04-15T02:39:44;6.82;;;3.65;;
60006;SDS011;45863;50.336;3.536;2023-04-15T02:42:09;7.38;;;4.00;;
60006;SDS011;45863;50.336;3.536;2023-04-15T02:44:35;7.60;;;3.90;;
60006;SDS011;45863;50.336;3.536;2023-04-15T02:47:00;8.30;;;3.88;;
60006;SDS011;45863;50.336;3.536;2023-04-15T02:49:26;8.05;;;4.43;;
60006;SDS011;45863;50.336;3.536;2023-04-15T02:51:53;8.50;;;4.30;;
60006;SDS011;45863;50.336;3.536;2023-04-15T02:54:20;7.63;;;4.50;;
60006;SDS011;45863;50.336;3.536;2023-04-15T02:56:47;7.93;;;4.65;;
60006;SDS011;45863;50.336;3.536;2023-04-15T02:59:12;8.68;;;4.43;;
60006;SDS011;45863;50.336;3.536;2023-04-15T03:01:37;9.33;;;4.93;;
60006;SDS011;45863;50.336;3.536;2023-04-15T03:04:02;9.23;;;4.72;;
60006;SDS011;45863;50.336;3.536;2023-04-15T03:06:28;7.72;;;4.60;;
60006;SDS011;45863;50.336;3.536;2023-04-15T03:08:53;10.43;;;4.60;;
60006;SDS011;45863;50.336;3.536;2023-04-15T03:11:18;9.80;;;5.10;;
60006;SDS011;45863;50.336;3.536;2023-04-15T03:13:43;9.45;;;4.75;;
60006;SDS011;45863;50.336;3.536;2023-04-15T03:16:09;11.25;;;5.10;;
60006;SDS011;45863;50.336;3.536;2023-04-15T03:18:35;10.50;;;4.82;;
60006;SDS011;45863;50.336;3.536;2023-04-15T03:21:00;8.90;;;4.32;;
60006;SDS011;45863;50.336;3.536;2023-04-15T03:23:26;9.93;;;4.65;;
60006;SDS011;45863;50.336;3.536;2023-04-15T03:25:51;7.93;;;4.25;;
60006;SDS011;45863;50.336;3.536;2023-04-15T03:28:20;10.07;;;4.70;;
60006;SDS011;45863;50.336;3.536;2023-04-15T03:30:45;11.48;;;4.95;;
60006;SDS011;45863;50.336;3.536;2023-04-15T03:33:10;7.47;;;4.38;;
60006;SDS011;45863;50.336;3.536;2023-04-15T03:35:35;9.15;;;4.68;;
60006;SDS011;45863;50.336;3.536;2023-04-15T03:38:01;8.68;;;5.20;;
60006;SDS011;45863;50.336;3.536;2023-04-15T03:40:26;8.25;;;4.97;;
60006;SDS011;45863;50.336;3.536;2023-04-15T03:42:52;9.48;;;5.57;;
60006;SDS011;45863;50.336;3.536;2023-04-15T03:45:17;9.52;;;5.53;;
60006;SDS011;45863;50.336;3.536;2023-04-15T03:47:42;10.13;;;5.78;;
60006;SDS011;45863;50.336;3.536;2023-04-15T03:50:07;10.00;;;5.40;;
60006;SDS011;45863;50.336;3.536;2023-04-15T03:52:33;10.27;;;5.55;;
60006;SDS011;45863;50.336;3.536;2023-04-15T03:54:58;11.65;;;5.38;;
60006;SDS011;45863;50.336;3.536;2023-04-15T03:57:23;10.15;;;6.00;;
60006;SDS011;45863;50.336;3.536;2023-04-15T03:59:48;10.65;;;5.55;;
60006;SDS011;45863;50.336;3.536;2023-04-15T04:02:14;9.88;;;5.68;;
60006;SDS011;45863;50.336;3.536;2023-04-15T04:04:39;8.27;;;5.20;;
60006;SDS011;45863;50.336;3.536;2023-04-15T04:07:04;9.45;;;5.70;;
60006;SDS011;45863;50.336;3.536;2023-04-15T04:09:30;9.17;;;5.70;;
60006;SDS011;45863;50.336;3.536;2023-04-15T04:11:55;12.00;;;6.25;;
60006;SDS011;45863;50.336;3.536;2023-04-15T04:14:20;12.50;;;6.30;;
60006;SDS011;45863;50.336;3.536;2023-04-15T04:16:53;9.70;;;6.10;;
60006;SDS011;45863;50.336;3.536;2023-04-15T04:19:18;10.63;;;6.67;;
60006;SDS011;45863;50.336;3.536;2023-04-15T04:21:44;10.90;;;6.43;;
60006;SDS011;45863;50.336;3.536;2023-04-15T04:24:09;11.65;;;6.95;;
60006;SDS011;45863;50.336;3.536;2023-04-15T04:26:34;14.43;;;6.60;;
60006;SDS011;45863;50.336;3.536;2023-04-15T04:29:00;12.02;;;6.78;;
60006;SDS011;45863;50.336;3.536;2023-04-15T04:31:25;12.02;;;6.88;;
60006;SDS011;45863;50.336;3.536;2023-04-15T04:33:51;10.77;;;7.13;;
60006;SDS011;45863;50.336;3.536;2023-04-15T04:36:16;12.00;;;7.47;;
60006;SDS011;45863;50.336;3.536;2023-04-15T04:38:41;10.98;;;7.25;;
60006;SDS011;45863;50.336;3.536;2023-04-15T04:41:06;14.73;;;7.72;;
60006;SDS011;45863;50.336;3.536;2023-04-15T04:43:32;12.13;;;7.13;;
60006;SDS011;45863;50.336;3.536;2023-04-15T04:45:57;12.45;;;7.15;;
60006;SDS011;45863;50.336;3.536;2023-04-15T04:48:22;12.88;;;7.88;;
60006;SDS011;45863;50.336;3.536;2023-04-15T04:50:47;11.95;;;7.93;;
60006;SDS011;45863;50.336;3.536;2023-04-15T04:53:13;11.60;;;7.78;;
60006;SDS011;45863;50.336;3.536;2023-04-15T04:55:39;14.15;;;7.90;;
60006;SDS011;45863;50.336;3.536;2023-04-15T04:58:04;15.73;;;8.05;;
60006;SDS011;45863;50.336;3.536;2023-04-15T05:00:29;14.13;;;7.93;;
60006;SDS011;45863;50.336;3.536;2023-04-15T05:02:55;12.45;;;7.63;;
60006;SDS011;45863;50.336;3.536;2023-04-15T05:05:20;12.27;;;7.68;;
60006;SDS011;45863;50.336;3.536;2023-04-15T05:07:46;14.60;;;7.53;;
60006;SDS011;45863;50.336;3.536;2023-04-15T05:10:13;14.52;;;8.13;;
60006;SDS011;45863;50.336;3.536;2023-04-15T05:12:39;11.80;;;7.97;;
60006;SDS011;45863;50.336;3.536;2023-04-15T05:15:05;15.75;;;8.00;;
60006;SDS011;45863;50.336;3.536;2023-04-15T05:17:30;13.38;;;7.95;;
60006;SDS011;45863;50.336;3.536;2023-04-15T05:19:57;14.65;;;8.00;;
60006;SDS011;45863;50.336;3.536;2023-04-15T05:22:22;13.45;;;8.25;;
60006;SDS011;45863;50.336;3.536;2023-04-15T05:24:47;13.32;;;8.55;;
60006;SDS011;45863;50.336;3.536;2023-04-15T05:27:13;12.70;;;8.50;;
60006;SDS011;45863;50.336;3.536;2023-04-15T05:29:38;11.65;;;7.65;;
60006;SDS011;45863;50.336;3.536;2023-04-15T05:32:09;17.13;;;8.20;;
60006;SDS011;45863;50.336;3.536;2023-04-15T05:34:35;13.55;;;8.00;;
60006;SDS011;45863;50.336;3.536;2023-04-15T05:37:01;13.75;;;8.10;;
60006;SDS011;45863;50.336;3.536;2023-04-15T05:39:26;13.60;;;7.80;;
60006;SDS011;45863;50.336;3.536;2023-04-15T05:41:51;11.13;;;6.35;;
60006;SDS011;45863;50.336;3.536;2023-04-15T05:44:17;12.52;;;7.18;;
60006;SDS011;45863;50.336;3.536;2023-04-15T05:46:42;12.02;;;6.93;;
60006;SDS011;45863;50.336;3.536;2023-04-15T05:49:07;11.38;;;6.93;;
60006;SDS011;45863;50.336;3.536;2023-04-15T05:51:33;12.00;;;7.00;;
60006;SDS011;45863;50.336;3.536;2023-04-15T05:53:58;13.60;;;7.07;;
60006;SDS011;45863;50.336;3.536;2023-04-15T05:56:23;12.68;;;6.63;;
60006;SDS011;45863;50.336;3.536;2023-04-15T05:58:51;13.73;;;7.63;;
60006;SDS011;45863;50.336;3.536;2023-04-15T06:01:16;15.00;;;7.78;;
60006;SDS011;45863;50.336;3.536;2023-04-15T06:03:41;14.43;;;7.80;;
60006;SDS011;45863;50.336;3.536;2023-04-15T06:06:07;13.43;;;7.90;;
60006;SDS011;45863;50.336;3.536;2023-04-15T06:08:32;13.40;;;7.57;;
60006;SDS011;45863;50.336;3.536;2023-04-15T06:10:59;13.77;;;7.50;;
60006;SDS011;45863;50.336;3.536;2023-04-15T06:13:24;15.88;;;8.13;;
60006;SDS011;45863;50.336;3.536;2023-04-15T06:15:49;16.10;;;6.97;;
60006;SDS011;45863;50.336;3.536;2023-04-15T06:18:15;13.47;;;8.20;;
60006;SDS011;45863;50.336;3.536;2023-04-15T06:20:40;11.93;;;8.02;;
60006;SDS011;45863;50.336;3.536;2023-04-15T06:23:05;15.18;;;8.85;;
60006;SDS011;45863;50.336;3.536;2023-04-15T06:25:31;15.30;;;9.38;;
60006;SDS011;45863;50.336;3.536;2023-04-15T06:27:56;19.48;;;9.45;;
60006;SDS011;45863;50.336;3.536;2023-04-15T06:30:21;16.85;;;10.20;;
60006;SDS011;45863;50.336;3.536;2023-04-15T06:32:46;15.80;;;10.88;;
60006;SDS011;45863;50.336;3.536;2023-04-15T06:35:13;16.40;;;9.55;;
60006;SDS011;45863;50.336;3.536;2023-04-15T06:37:39;16.83;;;9.85;;
60006;SDS011;45863;50.336;3.536;2023-04-15T06:40:05;20.95;;;11.60;;
60006;SDS011;45863;50.336;3.536;2023-04-15T06:42:31;21.42;;;11.30;;
60006;SDS011;45863;50.336;3.536;2023-04-15T06:44:56;22.20;;;13.07;;
60006;SDS011;45863;50.336;3.536;2023-04-15T06:47:21;21.88;;;13.07;;
60006;SDS011;45863;50.336;3.536;2023-04-15T06:49:46;26.13;;;13.77;;
60006;SDS011;45863;50.336;3.536;2023-04-15T06:52:12;22.58;;;13.23;;
60006;SDS011;45863;50.336;3.536;2023-04-15T06:54:37;25.65;;;14.27;;
60006;SDS011;45863;50.336;3.536;2023-04-15T06:57:02;23.92;;;13.88;;
60006;SDS011;45863;50.336;3.536;2023-04-15T06:59:28;20.45;;;12.50;;
60006;SDS011;45863;50.336;3.536;2023-04-15T07:01:53;20.45;;;13.35;;
60006;SDS011;45863;50.336;3.536;2023-04-15T07:04:18;21.70;;;12.85;;
60006;SDS011;45863;50.336;3.536;2023-04-15T07:06:44;22.73;;;12.65;;
60006;SDS011;45863;50.336;3.536;2023-04-15T07:09:10;20.13;;;12.73;;
60006;SDS011;45863;50.336;3.536;2023-04-15T07:11:35;20.42;;;12.52;;
60006;SDS011;45863;50.336;3.536;2023-04-15T07:14:00;22.45;;;13.45;;
60006;SDS011;45863;50.336;3.536;2023-04-15T07:16:26;18.70;;;12.63;;
60006;SDS011;45863;50.336;3.536;2023-04-15T07:18:51;19.77;;;12.82;;
60006;SDS011;45863;50.336;3.536;2023-04-15T07:21:16;20.90;;;12.95;;
60006;SDS011;45863;50.336;3.536;2023-04-15T07:23:41;20.83;;;12.83;;
60006;SDS011;45863;50.336;3.536;2023-04-15T07:26:07;19.43;;;12.80;;
60006;SDS011;45863;50.336;3.536;2023-04-15T07:28:32;21.23;;;12.57;;
60006;SDS011;45863;50.336;3.536;2023-04-15T07:30:57;17.60;;;11.90;;
60006;SDS011;45863;50.336;3.536;2023-04-15T07:33:23;16.92;;;11.95;;
60006;SDS011;45863;50.336;3.536;2023-04-15T07:35:48;18.45;;;12.35;;
60006;SDS011;45863;50.336;3.536;2023-04-15T07:38:14;19.00;;;12.63;;
60006;SDS011;45863;50.336;3.536;2023-04-15T07:40:39;15.00;;;11.30;;
60006;SDS011;45863;50.336;3.536;2023-04-15T07:43:04;21.13;;;13.00;;
60006;SDS011;45863;50.336;3.536;2023-04-15T07:45:30;20.63;;;12.65;;
60006;SDS011;45863;50.336;3.536;2023-04-15T07:47:55;21.88;;;12.82;;
60006;SDS011;45863;50.336;3.536;2023-04-15T07:50:20;19.00;;;12.27;;
60006;SDS011;45863;50.336;3.536;2023-04-15T07:52:47;16.98;;;11.98;;
60006;SDS011;45863;50.336;3.536;2023-04-15T07:55:12;18.50;;;12.85;;
60006;SDS011;45863;50.336;3.536;2023-04-15T07:57:38;18.42;;;12.20;;
60006;SDS011;45863;50.336;3.536;2023-04-15T08:00:04;20.80;;;13.52;;
60006;SDS011;45863;50.336;3.536;2023-04-15T08:02:29;19.38;;;13.15;;
60006;SDS011;45863;50.336;3.536;2023-04-15T08:04:55;18.25;;;12.23;;
60006;SDS011;45863;50.336;3.536;2023-04-15T08:07:21;18.42;;;12.95;;
60006;SDS011;45863;50.336;3.536;2023-04-15T08:09:47;18.92;;;12.55;;
60006;SDS011;45863;50.336;3.536;2023-04-15T08:12:12;17.80;;;11.48;;
60006;SDS011;45863;50.336;3.536;2023-04-15T08:14:37;16.92;;;11.70;;
60006;SDS011;45863;50.336;3.536;2023-04-15T08:17:03;18.77;;;11.90;;
60006;SDS011;45863;50.336;3.536;2023-04-15T08:19:28;18.63;;;12.68;;
60006;SDS011;45863;50.336;3.536;2023-04-15T08:21:53;20.02;;;11.85;;
60006;SDS011;45863;50.336;3.536;2023-04-15T08:24:19;16.98;;;11.88;;
60006;SDS011;45863;50.336;3.536;2023-04-15T08:26:44;16.58;;;11.70;;
60006;SDS011;45863;50.336;3.536;2023-04-15T08:29:11;17.77;;;10.73;;
60006;SDS011;45863;50.336;3.536;2023-04-15T08:31:36;16.17;;;10.60;;
60006;SDS011;45863;50.336;3.536;2023-04-15T08:34:01;17.97;;;10.37;;
60006;SDS011;45863;50.336;3.536;2023-04-15T08:36:27;17.30;;;10.75;;
60006;SDS011;45863;50.336;3.536;2023-04-15T08:38:52;15.57;;;10.48;;
60006;SDS011;45863;50.336;3.536;2023-04-15T08:41:21;16.10;;;10.68;;
60006;SDS011;45863;50.336;3.536;2023-04-15T08:43:56;17.55;;;10.73;;
60006;SDS011;45863;50.336;3.536;2023-04-15T08:46:22;14.43;;;10.00;;
60006;SDS011;45863;50.336;3.536;2023-04-15T08:48:47;16.80;;;10.60;;
60006;SDS011;45863;50.336;3.536;2023-04-15T08:51:13;16.80;;;10.25;;
60006;SDS011;45863;50.336;3.536;2023-04-15T08:53:40;16.00;;;9.43;;
60006;SDS011;45863;50.336;3.536;2023-04-15T08:56:06;13.48;;;9.38;;
60006;SDS011;45863;50.336;3.536;2023-04-15T08:58:32;16.65;;;10.38;;
60006;SDS011;45863;50.336;3.536;2023-04-15T09:00:58;14.90;;;9.52;;
60006;SDS011;45863;50.336;3.536;2023-04-15T09:03:23;16.42;;;10.18;;
60006;SDS011;45863;50.336;3.536;2023-04-15T09:05:49;14.70;;;9.57;;
60006;SDS011;45863;50.336;3.536;2023-04-15T09:08:14;12.68;;;8.57;;
60006;SDS011;45863;50.336;3.536;2023-04-15T09:10:40;13.13;;;8.38;;
60006;SDS011;45863;50.336;3.536;2023-04-15T09:13:05;14.02;;;8.43;;
60006;SDS011;45863;50.336;3.536;2023-04-15T09:15:30;12.88;;;8.60;;
60006;SDS011;45863;50.336;3.536;2023-04-15T09:17:56;15.52;;;8.40;;
60006;SDS011;45863;50.336;3.536;2023-04-15T09:20:22;14.07;;;7.70;;
60006;SDS011;45863;50.336;3.536;2023-04-15T09:22:47;12.30;;;7.78;;
60006;SDS011;45863;50.336;3.536;2023-04-15T09:27:52;12.88;;;7.30;;
60006;SDS011;45863;50.336;3.536;2023-04-15T09:30:17;12.63;;;6.28;;
60006;SDS011;45863;50.336;3.536;2023-04-15T09:35:13;12.05;;;6.28;;
60006;SDS011;45863;50.336;3.536;2023-04-15T09:37:39;8.82;;;5.72;;
60006;SDS011;45863;50.336;3.536;2023-04-15T09:40:04;11.40;;;6.18;;
60006;SDS011;45863;50.336;3.536;2023-04-15T09:42:30;10.10;;;5.35;;
60006;SDS011;45863;50.336;3.536;2023-04-15T09:45:06;11.98;;;5.30;;
60006;SDS011;45863;50.336;3.536;2023-04-15T09:47:31;10.57;;;4.95;;
60006;SDS011;45863;50.336;3.536;2023-04-15T09:49:57;8.70;;;5.00;;
60006;SDS011;45863;50.336;3.536;2023-04-15T09:52:23;11.35;;;4.80;;
60006;SDS011;45863;50.336;3.536;2023-04-15T09:54:48;14.93;;;5.60;;
60006;SDS011;45863;50.336;3.536;2023-04-15T09:57:17;10.00;;;4.70;;
60006;SDS011;45863;50.336;3.536;2023-04-15T09:59:42;10.73;;;4.97;;
60006;SDS011;45863;50.336;3.536;2023-04-15T10:02:07;12.20;;;5.20;;
60006;SDS011;45863;50.336;3.536;2023-04-15T10:04:38;10.63;;;4.72;;
60006;SDS011;45863;50.336;3.536;2023-04-15T10:07:04;9.52;;;5.25;;
60006;SDS011;45863;50.336;3.536;2023-04-15T10:09:30;10.38;;;4.80;;
60006;SDS011;45863;50.336;3.536;2023-04-15T10:11:56;9.02;;;4.72;;
60006;SDS011;45863;50.336;3.536;2023-04-15T10:14:21;11.18;;;5.00;;
60006;SDS011;45863;50.336;3.536;2023-04-15T10:16:47;11.82;;;5.40;;
60006;SDS011;45863;50.336;3.536;2023-04-15T10:19:13;12.63;;;5.40;;
60006;SDS011;45863;50.336;3.536;2023-04-15T10:21:40;12.77;;;5.97;;
60006;SDS011;45863;50.336;3.536;2023-04-15T10:24:05;13.30;;;6.15;;
60006;SDS011;45863;50.336;3.536;2023-04-15T10:26:31;13.60;;;6.15;;
60006;SDS011;45863;50.336;3.536;2023-04-15T10:28:56;11.45;;;6.07;;
60006;SDS011;45863;50.336;3.536;2023-04-15T10:31:22;11.77;;;6.60;;
60006;SDS011;45863;50.336;3.536;2023-04-15T10:33:47;16.58;;;6.95;;
60006;SDS011;45863;50.336;3.536;2023-04-15T10:36:13;15.50;;;7.47;;
60006;SDS011;45863;50.336;3.536;2023-04-15T10:38:40;17.27;;;7.97;;
60006;SDS011;45863;50.336;3.536;2023-04-15T10:41:21;11.85;;;6.80;;
60006;SDS011;45863;50.336;3.536;2023-04-15T10:43:55;14.50;;;6.70;;
60006;SDS011;45863;50.336;3.536;2023-04-15T10:46:22;15.80;;;7.43;;
60006;SDS011;45863;50.336;3.536;2023-04-15T10:48:48;20.58;;;8.20;;
60006;SDS011;45863;50.336;3.536;2023-04-15T10:51:14;19.63;;;9.40;;
60006;SDS011;45863;50.336;3.536;2023-04-15T10:53:40;19.45;;;9.40;;
60006;SDS011;45863;50.336;3.536;2023-04-15T10:56:06;18.77;;;8.80;;
60006;SDS011;45863;50.336;3.536;2023-04-15T10:58:40;16.30;;;8.43;;
60006;SDS011;45863;50.336;3.536;2023-04-15T11:01:05;17.20;;;8.63;;
60006;SDS011;45863;50.336;3.536;2023-04-15T11:03:38;14.13;;;8.10;;
60006;SDS011;45863;50.336;3.536;2023-04-15T11:06:03;14.07;;;8.20;;
60006;SDS011;45863;50.336;3.536;2023-04-15T11:11:14;17.15;;;8.13;;
60006;SDS011;45863;50.336;3.536;2023-04-15T11:13:46;18.67;;;8.02;;
60006;SDS011;45863;50.336;3.536;2023-04-15T11:16:12;23.92;;;9.52;;
60006;SDS011;45863;50.336;3.536;2023-04-15T11:18:37;16.45;;;9.25;;
60006;SDS011;45863;50.336;3.536;2023-04-15T11:21:03;17.57;;;8.93;;
60006;SDS011;45863;50.336;3.536;2023-04-15T11:23:30;19.02;;;8.93;;
60006;SDS011;45863;50.336;3.536;2023-04-15T11:25:55;19.83;;;10.63;;
60006;SDS011;45863;50.336;3.536;2023-04-15T11:28:24;21.42;;;10.10;;
60006;SDS011;45863;50.336;3.536;2023-04-15T11:30:49;21.58;;;9.48;;
60006;SDS011;45863;50.336;3.536;2023-04-15T11:33:14;18.20;;;9.73;;
60006;SDS011;45863;50.336;3.536;2023-04-15T11:35:40;14.90;;;8.93;;
60006;SDS011;45863;50.336;3.536;2023-04-15T11:38:10;21.95;;;9.70;;
60006;SDS011;45863;50.336;3.536;2023-04-15T11:40:39;19.38;;;10.02;;
60006;SDS011;45863;50.336;3.536;2023-04-15T11:45:36;20.50;;;10.25;;
60006;SDS011;45863;50.336;3.536;2023-04-15T11:48:08;18.20;;;9.05;;
60006;SDS011;45863;50.336;3.536;2023-04-15T11:50:34;17.25;;;8.75;;
60006;SDS011;45863;50.336;3.536;2023-04-15T11:53:01;15.73;;;7.97;;
60006;SDS011;45863;50.336;3.536;2023-04-15T11:55:27;14.90;;;7.95;;
60006;SDS011;45863;50.336;3.536;2023-04-15T12:00:37;15.70;;;8.07;;
60006;SDS011;45863;50.336;3.536;2023-04-15T12:11:20;13.02;;;8.38;;
60006;SDS011;45863;50.336;3.536;2023-04-15T12:13:46;12.52;;;7.53;;
60006;SDS011;45863;50.336;3.536;2023-04-15T12:16:12;13.95;;;7.88;;
60006;SDS011;45863;50.336;3.536;2023-04-15T12:18:37;12.52;;;7.68;;
60006;SDS011;45863;50.336;3.536;2023-04-15T12:21:12;11.20;;;7.13;;
60006;SDS011;45863;50.336;3.536;2023-04-15T12:23:38;13.20;;;7.53;;
60006;SDS011;45863;50.336;3.536;2023-04-15T12:26:06;13.10;;;7.82;;
60006;SDS011;45863;50.336;3.536;2023-04-15T12:28:33;12.15;;;7.03;;
60006;SDS011;45863;50.336;3.536;2023-04-15T12:30:58;11.88;;;7.38;;
60006;SDS011;45863;50.336;3.536;2023-04-15T12:33:31;12.32;;;7.30;;
60006;SDS011;45863;50.336;3.536;2023-04-15T12:35:56;16.08;;;9.15;;
60006;SDS011;45863;50.336;3.536;2023-04-15T12:38:22;13.80;;;8.73;;
60006;SDS011;45863;50.336;3.536;2023-04-15T12:40:47;11.55;;;7.90;;
60006;SDS011;45863;50.336;3.536;2023-04-15T12:43:12;10.52;;;7.10;;
60006;SDS011;45863;50.336;3.536;2023-04-15T12:45:37;13.30;;;7.83;;
60006;SDS011;45863;50.336;3.536;2023-04-15T12:48:02;16.97;;;8.33;;
60006;SDS011;45863;50.336;3.536;2023-04-15T12:50:28;15.13;;;8.70;;
60006;SDS011;45863;50.336;3.536;2023-04-15T12:52:53;13.53;;;9.43;;
60006;SDS011;45863;50.336;3.536;2023-04-15T12:55:18;14.38;;;10.38;;
60006;SDS011;45863;50.336;3.536;2023-04-15T12:57:43;12.23;;;8.87;;
60006;SDS011;45863;50.336;3.536;2023-04-15T13:00:09;14.60;;;7.87;;
60006;SDS011;45863;50.336;3.536;2023-04-15T13:02:34;13.75;;;7.00;;
60006;SDS011;45863;50.336;3.536;2023-04-15T13:05:00;12.43;;;6.93;;
60006;SDS011;45863;50.336;3.536;2023-04-15T13:07:25;14.03;;;8.87;;
60006;SDS011;45863;50.336;3.536;2023-04-15T13:09:50;14.18;;;8.57;;
60006;SDS011;45863;50.336;3.536;2023-04-15T13:12:15;15.38;;;9.45;;
60006;SDS011;45863;50.336;3.536;2023-04-15T13:14:41;19.17;;;10.68;;
60006;SDS011;45863;50.336;3.536;2023-04-15T13:17:06;15.20;;;9.70;;
60006;SDS011;45863;50.336;3.536;2023-04-15T13:19:34;16.45;;;9.40;;
60006;SDS011;45863;50.336;3.536;2023-04-15T13:22:01;14.65;;;8.80;;
60006;SDS011;45863;50.336;3.536;2023-04-15T13:24:26;14.20;;;7.05;;
60006;SDS011;45863;50.336;3.536;2023-04-15T13:26:51;10.90;;;5.50;;
60006;SDS011;45863;50.336;3.536;2023-04-15T13:29:17;11.73;;;5.72;;
60006;SDS011;45863;50.336;3.536;2023-04-15T13:31:42;10.13;;;5.20;;
60006;SDS011;45863;50.336;3.536;2023-04-15T13:34:08;11.67;;;4.43;;
60006;SDS011;45863;50.336;3.536;2023-04-15T13:36:33;9.90;;;3.90;;
60006;SDS011;45863;50.336;3.536;2023-04-15T13:38:58;8.57;;;4.20;;
60006;SDS011;45863;50.336;3.536;2023-04-15T13:41:23;9.70;;;3.70;;
60006;SDS011;45863;50.336;3.536;2023-04-15T13:43:49;7.63;;;4.10;;
60006;SDS011;45863;50.336;3.536;2023-04-15T13:46:15;8.98;;;4.47;;
60006;SDS011;45863;50.336;3.536;2023-04-15T13:48:40;8.25;;;5.13;;
60006;SDS011;45863;50.336;3.536;2023-04-15T13:51:05;8.27;;;4.13;;
60006;SDS011;45863;50.336;3.536;2023-04-15T13:53:31;11.63;;;4.90;;
60006;SDS011;45863;50.336;3.536;2023-04-15T13:55:56;10.02;;;4.35;;
60006;SDS011;45863;50.336;3.536;2023-04-15T13:58:21;8.45;;;4.10;;
60006;SDS011;45863;50.336;3.536;2023-04-15T14:00:46;11.40;;;4.40;;
60006;SDS011;45863;50.336;3.536;2023-04-15T14:03:11;8.03;;;4.13;;
60006;SDS011;45863;50.336;3.536;2023-04-15T14:05:37;8.80;;;3.60;;
60006;SDS011;45863;50.336;3.536;2023-04-15T14:08:02;7.38;;;3.25;;
60006;SDS011;45863;50.336;3.536;2023-04-15T14:10:27;10.60;;;3.50;;
60006;SDS011;45863;50.336;3.536;2023-04-15T14:12:52;7.30;;;3.50;;
60006;SDS011;45863;50.336;3.536;2023-04-15T14:15:18;7.27;;;3.00;;
60006;SDS011;45863;50.336;3.536;2023-04-15T14:17:43;7.25;;;3.40;;
60006;SDS011;45863;50.336;3.536;2023-04-15T14:20:08;10.23;;;3.85;;
60006;SDS011;45863;50.336;3.536;2023-04-15T14:22:34;7.38;;;3.47;;
60006;SDS011;45863;50.336;3.536;2023-04-15T14:24:59;6.82;;;3.30;;
60006;SDS011;45863;50.336;3.536;2023-04-15T14:27:25;5.38;;;3.10;;
60006;SDS011;45863;50.336;3.536;2023-04-15T14:29:51;7.65;;;3.53;;
60006;SDS011;45863;50.336;3.536;2023-04-15T14:32:17;6.57;;;3.60;;
60006;SDS011;45863;50.336;3.536;2023-04-15T14:34:42;6.73;;;3.47;;
60006;SDS011;45863;50.336;3.536;2023-04-15T14:37:08;6.60;;;3.30;;
60006;SDS011;45863;50.336;3.536;2023-04-15T14:39:33;5.80;;;3.60;;
60006;SDS011;45863;50.336;3.536;2023-04-15T14:41:58;8.80;;;2.85;;
60006;SDS011;45863;50.336;3.536;2023-04-15T14:44:23;5.45;;;2.70;;
60006;SDS011;45863;50.336;3.536;2023-04-15T14:46:49;7.53;;;3.60;;
60006;SDS011;45863;50.336;3.536;2023-04-15T14:49:15;7.45;;;3.53;;